sensor_id;sensor_type;location;lat;lon;timestamp;pressure;altitude;pressure_sealevel;temperature;humidity
46448;BME280;32145;50.390;30.778;2023-04-22T00:02:39;99427.06;;;6.41;74.33
46448;BME280;32145;50.390;30.778;2023-04-22T00:05:35;99419.84;;;6.35;74.00
46448;BME280;32145;50.390;30.778;2023-04-22T00:08:31;99419.25;;;6.26;74.30
46448;BME280;32145;50.390;30.778;2023-04-22T00:11:25;99421.53;;;6.29;74.59
46448;BME280;32145;50.390;30.778;2023-04-22T00:14:19;99422.78;;;6.26;74.73
46448;BME280;32145;50.390;30.778;2023-04-22T00:17:13;99420.94;;;6.20;74.60
46448;BME280;32145;50.390;30.778;2023-04-22T00:20:10;99411.06;;;6.14;74.74
46448;BME280;32145;50.390;30.778;2023-04-22T00:23:07;99415.22;;;6.10;74.26
46448;BME280;32145;50.390;30.778;2023-04-22T00:26:04;99418.34;;;6.06;75.17
46448;BME280;32145;50.390;30.778;2023-04-22T00:29:00;99417.50;;;5.99;74.88
46448;BME280;32145;50.390;30.778;2023-04-22T00:31:57;99415.06;;;5.91;74.89
46448;BME280;32145;50.390;30.778;2023-04-22T00:34:53;99414.91;;;5.86;75.16
46448;BME280;32145;50.390;30.778;2023-04-22T00:37:50;99420.09;;;5.80;75.11
46448;BME280;32145;50.390;30.778;2023-04-22T00:40:46;99425.69;;;5.79;75.04
46448;BME280;32145;50.390;30.778;2023-04-22T00:43:42;99418.84;;;5.76;75.53
46448;BME280;32145;50.390;30.778;2023-04-22T00:46:37;99416.59;;;5.73;75.54
46448;BME280;32145;50.390;30.778;2023-04-22T00:49:33;99424.03;;;5.71;75.59
46448;BME280;32145;50.390;30.778;2023-04-22T00:52:28;99432.31;;;5.70;75.41
46448;BME280;32145;50.390;30.778;2023-04-22T00:55:22;99433.75;;;5.72;75.83
46448;BME280;32145;50.390;30.778;2023-04-22T00:58:18;99421.53;;;5.76;75.69
46448;BME280;32145;50.390;30.778;2023-04-22T01:01:15;99430.63;;;5.89;75.87
46448;BME280;32145;50.390;30.778;2023-04-22T01:04:09;99429.94;;;6.00;75.49
46448;BME280;32145;50.390;30.778;2023-04-22T01:07:03;99433.44;;;6.08;75.66
46448;BME280;32145;50.390;30.778;2023-04-22T01:10:00;99435.88;;;6.16;75.04
46448;BME280;32145;50.390;30.778;2023-04-22T01:12:57;99432.56;;;6.21;74.68
46448;BME280;32145;50.390;30.778;2023-04-22T01:15:52;99432.13;;;6.24;74.57
46448;BME280;32145;50.390;30.778;2023-04-22T01:18:48;99439.16;;;6.25;74.58
46448;BME280;32145;50.390;30.778;2023-04-22T01:21:42;99432.34;;;6.22;74.38
46448;BME280;32145;50.390;30.778;2023-04-22T01:24:38;99440.03;;;6.18;74.58
46448;BME280;32145;50.390;30.778;2023-04-22T01:27:32;99432.59;;;6.14;74.57
46448;BME280;32145;50.390;30.778;2023-04-22T01:30:27;99430.53;;;6.09;73.87
46448;BME280;32145;50.390;30.778;2023-04-22T01:33:21;99430.53;;;6.02;74.34
46448;BME280;32145;50.390;30.778;2023-04-22T01:36:16;99440.50;;;5.95;74.19
46448;BME280;32145;50.390;30.778;2023-04-22T01:39:10;99428.53;;;5.91;74.50
46448;BME280;32145;50.390;30.778;2023-04-22T01:42:07;99432.63;;;5.93;74.01
46448;BME280;32145;50.390;30.778;2023-04-22T01:45:04;99435.97;;;5.96;73.78
46448;BME280;32145;50.390;30.778;2023-04-22T01:48:00;99434.31;;;5.95;73.69
46448;BME280;32145;50.390;30.778;2023-04-22T01:50:56;99432.25;;;5.90;73.51
46448;BME280;32145;50.390;30.778;2023-04-22T01:53:51;99439.69;;;5.88;73.93
46448;BME280;32145;50.390;30.778;2023-04-22T01:56:49;99434.09;;;5.89;73.88
46448;BME280;32145;50.390;30.778;2023-04-22T01:59:47;99446.53;;;5.84;73.35
46448;BME280;32145;50.390;30.778;2023-04-22T02:02:43;99447.38;;;5.84;73.23
46448;BME280;32145;50.390;30.778;2023-04-22T02:05:39;99446.34;;;5.85;73.17
46448;BME280;32145;50.390;30.778;2023-04-22T02:08:36;99448.00;;;5.79;73.37
46448;BME280;32145;50.390;30.778;2023-04-22T02:11:32;99451.34;;;5.75;73.39
46448;BME280;32145;50.390;30.778;2023-04-22T02:14:28;99451.81;;;5.65;72.93
46448;BME280;32145;50.390;30.778;2023-04-22T02:17:26;99449.75;;;5.53;73.33
46448;BME280;32145;50.390;30.778;2023-04-22T02:20:22;99446.84;;;5.48;73.32
46448;BME280;32145;50.390;30.778;2023-04-22T02:23:18;99446.84;;;5.48;73.49
46448;BME280;32145;50.390;30.778;2023-04-22T02:26:14;99445.41;;;5.52;73.24
46448;BME280;32145;50.390;30.778;2023-04-22T02:29:11;99448.91;;;5.60;73.54
46448;BME280;32145;50.390;30.778;2023-04-22T02:32:07;99441.03;;;5.65;73.49
46448;BME280;32145;50.390;30.778;2023-04-22T02:35:03;99447.84;;;5.74;72.94
46448;BME280;32145;50.390;30.778;2023-04-22T02:37:57;99443.88;;;5.77;72.76
46448;BME280;32145;50.390;30.778;2023-04-22T02:40:52;99451.34;;;5.82;72.94
46448;BME280;32145;50.390;30.778;2023-04-22T02:43:46;99454.81;;;5.82;72.71
46448;BME280;32145;50.390;30.778;2023-04-22T02:46:40;99449.69;;;5.80;72.34
46448;BME280;32145;50.390;30.778;2023-04-22T02:49:35;99445.31;;;5.79;72.21
46448;BME280;32145;50.390;30.778;2023-04-22T02:52:32;99456.72;;;5.82;72.60
46448;BME280;32145;50.390;30.778;2023-04-22T02:55:26;99448.66;;;5.82;72.11
46448;BME280;32145;50.390;30.778;2023-04-22T02:58:22;99456.50;;;5.83;72.32
46448;BME280;32145;50.390;30.778;2023-04-22T03:01:18;99446.34;;;5.85;72.24
46448;BME280;32145;50.390;30.778;2023-04-22T03:04:13;99446.75;;;5.89;72.00
46448;BME280;32145;50.390;30.778;2023-04-22T03:07:07;99461.44;;;5.93;71.29
46448;BME280;32145;50.390;30.778;2023-04-22T03:10:04;99462.88;;;5.96;71.75
46448;BME280;32145;50.390;30.778;2023-04-22T03:12:58;99457.88;;;5.99;71.64
46448;BME280;32145;50.390;30.778;2023-04-22T03:15:53;99464.50;;;6.03;70.97
46448;BME280;32145;50.390;30.778;2023-04-22T03:18:47;99460.34;;;6.08;70.84
46448;BME280;32145;50.390;30.778;2023-04-22T03:21:41;99462.63;;;6.11;70.53
46448;BME280;32145;50.390;30.778;2023-04-22T03:24:36;99462.78;;;6.16;71.21
46448;BME280;32145;50.390;30.778;2023-04-22T03:27:33;99471.88;;;6.28;71.06
46448;BME280;32145;50.390;30.778;2023-04-22T03:30:30;99471.69;;;6.55;70.50
46448;BME280;32145;50.390;30.778;2023-04-22T03:33:26;99471.66;;;6.88;70.29
46448;BME280;32145;50.390;30.778;2023-04-22T03:36:22;99481.59;;;7.19;69.82
46448;BME280;32145;50.390;30.778;2023-04-22T03:39:19;99482.56;;;7.51;68.60
46448;BME280;32145;50.390;30.778;2023-04-22T03:42:15;99486.63;;;7.79;68.33
46448;BME280;32145;50.390;30.778;2023-04-22T03:45:13;99489.81;;;8.06;67.41
46448;BME280;32145;50.390;30.778;2023-04-22T03:48:09;99496.91;;;8.38;66.74
46448;BME280;32145;50.390;30.778;2023-04-22T03:51:05;99497.59;;;8.64;66.02
46448;BME280;32145;50.390;30.778;2023-04-22T03:54:02;99501.66;;;8.85;64.73
46448;BME280;32145;50.390;30.778;2023-04-22T03:56:58;99506.78;;;9.06;63.73
46448;BME280;32145;50.390;30.778;2023-04-22T03:59:52;99515.72;;;9.30;63.05
46448;BME280;32145;50.390;30.778;2023-04-22T04:02:48;99513.97;;;9.48;62.48
46448;BME280;32145;50.390;30.778;2023-04-22T04:05:42;99528.59;;;9.47;61.80
46448;BME280;32145;50.390;30.778;2023-04-22T04:08:36;99510.78;;;9.15;61.28
46448;BME280;32145;50.390;30.778;2023-04-22T04:11:31;99524.94;;;8.86;61.15
46448;BME280;32145;50.390;30.778;2023-04-22T04:14:25;99516.91;;;8.68;61.41
46448;BME280;32145;50.390;30.778;2023-04-22T04:17:19;99519.94;;;8.59;61.59
46448;BME280;32145;50.390;30.778;2023-04-22T04:20:15;99519.56;;;8.56;61.27
46448;BME280;32145;50.390;30.778;2023-04-22T04:23:09;99529.56;;;8.55;61.27
46448;BME280;32145;50.390;30.778;2023-04-22T04:26:04;99529.06;;;8.58;61.02
46448;BME280;32145;50.390;30.778;2023-04-22T04:29:00;99531.78;;;8.58;60.95
46448;BME280;32145;50.390;30.778;2023-04-22T04:31:56;99530.25;;;8.62;60.66
46448;BME280;32145;50.390;30.778;2023-04-22T04:34:53;99531.84;;;8.70;60.29
46448;BME280;32145;50.390;30.778;2023-04-22T04:37:50;99538.56;;;8.80;60.16
46448;BME280;32145;50.390;30.778;2023-04-22T04:40:45;99543.41;;;8.89;59.96
46448;BME280;32145;50.390;30.778;2023-04-22T04:43:41;99538.16;;;8.95;59.22
46448;BME280;32145;50.390;30.778;2023-04-22T04:46:37;99540.53;;;9.03;59.29
46448;BME280;32145;50.390;30.778;2023-04-22T04:49:34;99548.53;;;9.10;59.16
46448;BME280;32145;50.390;30.778;2023-04-22T04:52:30;99538.66;;;9.15;58.13
46448;BME280;32145;50.390;30.778;2023-04-22T04:55:26;99553.47;;;9.25;58.08
46448;BME280;32145;50.390;30.778;2023-04-22T04:58:20;99548.78;;;9.32;57.83
46448;BME280;32145;50.390;30.778;2023-04-22T05:01:14;99551.16;;;9.40;57.71
46448;BME280;32145;50.390;30.778;2023-04-22T05:04:08;99544.31;;;9.50;57.49
46448;BME280;32145;50.390;30.778;2023-04-22T05:07:03;99553.28;;;9.62;57.50
46448;BME280;32145;50.390;30.778;2023-04-22T05:09:59;99549.72;;;9.74;56.84
46448;BME280;32145;50.390;30.778;2023-04-22T05:12:55;99558.09;;;9.84;56.77
46448;BME280;32145;50.390;30.778;2023-04-22T05:15:49;99549.16;;;9.96;56.45
46448;BME280;32145;50.390;30.778;2023-04-22T05:18:43;99560.44;;;10.04;56.28
46448;BME280;32145;50.390;30.778;2023-04-22T05:21:38;99553.25;;;10.10;55.14
46448;BME280;32145;50.390;30.778;2023-04-22T05:24:32;99557.22;;;10.19;55.50
46448;BME280;32145;50.390;30.778;2023-04-22T05:27:26;99565.94;;;10.22;54.17
46448;BME280;32145;50.390;30.778;2023-04-22T05:30:22;99563.81;;;10.24;54.05
46448;BME280;32145;50.390;30.778;2023-04-22T05:33:16;99559.09;;;10.31;54.22
46448;BME280;32145;50.390;30.778;2023-04-22T05:36:11;99571.09;;;10.35;53.95
46448;BME280;32145;50.390;30.778;2023-04-22T05:39:05;99558.47;;;10.41;53.58
46448;BME280;32145;50.390;30.778;2023-04-22T05:42:00;99560.34;;;10.52;54.06
46448;BME280;32145;50.390;30.778;2023-04-22T05:44:54;99568.44;;;10.64;53.83
46448;BME280;32145;50.390;30.778;2023-04-22T05:47:50;99565.00;;;10.69;52.83
46448;BME280;32145;50.390;30.778;2023-04-22T05:50:46;99567.00;;;10.74;52.79
46448;BME280;32145;50.390;30.778;2023-04-22T05:53:43;99563.91;;;10.82;51.89
46448;BME280;32145;50.390;30.778;2023-04-22T05:56:39;99567.38;;;10.94;52.39
46448;BME280;32145;50.390;30.778;2023-04-22T05:59:33;99562.63;;;11.02;52.37
46448;BME280;32145;50.390;30.778;2023-04-22T06:02:27;99564.94;;;11.10;51.41
46448;BME280;32145;50.390;30.778;2023-04-22T06:05:23;99563.81;;;11.23;51.92
46448;BME280;32145;50.390;30.778;2023-04-22T06:08:17;99564.19;;;11.32;51.17
46448;BME280;32145;50.390;30.778;2023-04-22T06:11:11;99559.50;;;11.44;51.99
46448;BME280;32145;50.390;30.778;2023-04-22T06:14:06;99571.69;;;11.59;51.19
46448;BME280;32145;50.390;30.778;2023-04-22T06:17:01;99566.91;;;11.66;50.69
46448;BME280;32145;50.390;30.778;2023-04-22T06:19:55;99566.56;;;11.80;50.37
46448;BME280;32145;50.390;30.778;2023-04-22T06:22:50;99565.63;;;11.91;50.02
46448;BME280;32145;50.390;30.778;2023-04-22T06:25:47;99569.19;;;12.09;50.26
46448;BME280;32145;50.390;30.778;2023-04-22T06:28:43;99565.25;;;12.22;49.68
46448;BME280;32145;50.390;30.778;2023-04-22T06:31:39;99560.69;;;12.28;49.36
46448;BME280;32145;50.390;30.778;2023-04-22T06:34:34;99568.69;;;12.34;48.69
46448;BME280;32145;50.390;30.778;2023-04-22T06:37:28;99581.06;;;12.47;48.77
46448;BME280;32145;50.390;30.778;2023-04-22T06:40:26;99580.69;;;12.61;47.92
46448;BME280;32145;50.390;30.778;2023-04-22T06:43:22;99578.88;;;12.72;48.20
46448;BME280;32145;50.390;30.778;2023-04-22T06:46:18;99589.59;;;12.84;47.19
46448;BME280;32145;50.390;30.778;2023-04-22T06:49:15;99583.16;;;12.90;46.47
46448;BME280;32145;50.390;30.778;2023-04-22T06:52:11;99591.78;;;13.09;46.49
46448;BME280;32145;50.390;30.778;2023-04-22T06:55:06;99592.47;;;13.22;46.03
46448;BME280;32145;50.390;30.778;2023-04-22T06:58:01;99602.66;;;13.37;45.91
46448;BME280;32145;50.390;30.778;2023-04-22T07:00:57;99592.19;;;13.51;45.37
46448;BME280;32145;50.390;30.778;2023-04-22T07:03:52;99599.88;;;13.59;45.03
46448;BME280;32145;50.390;30.778;2023-04-22T07:06:46;99591.50;;;13.71;44.51
46448;BME280;32145;50.390;30.778;2023-04-22T07:09:40;99601.94;;;13.79;44.36
46448;BME280;32145;50.390;30.778;2023-04-22T07:12:35;99596.28;;;13.91;44.66
46448;BME280;32145;50.390;30.778;2023-04-22T07:15:32;99606.69;;;14.05;44.82
46448;BME280;32145;50.390;30.778;2023-04-22T07:18:27;99599.41;;;14.16;44.36
46448;BME280;32145;50.390;30.778;2023-04-22T07:21:21;99605.94;;;14.15;44.35
46448;BME280;32145;50.390;30.778;2023-04-22T07:24:15;99615.56;;;14.28;44.25
46448;BME280;32145;50.390;30.778;2023-04-22T07:27:09;99610.19;;;14.43;43.50
46448;BME280;32145;50.390;30.778;2023-04-22T07:30:06;99624.41;;;14.51;43.65
46448;BME280;32145;50.390;30.778;2023-04-22T07:33:04;99620.31;;;14.59;43.14
46448;BME280;32145;50.390;30.778;2023-04-22T07:36:00;99622.78;;;14.60;42.44
46448;BME280;32145;50.390;30.778;2023-04-22T07:38:54;99623.63;;;14.61;42.33
46448;BME280;32145;50.390;30.778;2023-04-22T07:41:48;99624.44;;;14.61;41.98
46448;BME280;32145;50.390;30.778;2023-04-22T07:44:43;99625.56;;;14.71;41.59
46448;BME280;32145;50.390;30.778;2023-04-22T07:47:37;99631.28;;;14.74;39.92
46448;BME280;32145;50.390;30.778;2023-04-22T07:50:35;99638.94;;;14.72;39.82
46448;BME280;32145;50.390;30.778;2023-04-22T07:53:29;99631.03;;;14.76;39.53
46448;BME280;32145;50.390;30.778;2023-04-22T07:56:24;99636.31;;;14.88;39.42
46448;BME280;32145;50.390;30.778;2023-04-22T07:59:18;99637.97;;;15.04;39.11
46448;BME280;32145;50.390;30.778;2023-04-22T08:02:13;99632.50;;;15.04;38.26
46448;BME280;32145;50.390;30.778;2023-04-22T08:05:07;99633.34;;;15.05;38.26
46448;BME280;32145;50.390;30.778;2023-04-22T08:08:02;99639.59;;;15.05;37.98
46448;BME280;32145;50.390;30.778;2023-04-22T08:10:56;99634.72;;;15.13;38.32
46448;BME280;32145;50.390;30.778;2023-04-22T08:13:51;99645.38;;;15.19;37.74
46448;BME280;32145;50.390;30.778;2023-04-22T08:16:45;99637.47;;;15.28;38.62
46448;BME280;32145;50.390;30.778;2023-04-22T08:19:39;99634.44;;;15.19;37.45
46448;BME280;32145;50.390;30.778;2023-04-22T08:22:34;99640.50;;;15.37;36.96
46448;BME280;32145;50.390;30.778;2023-04-22T08:25:29;99644.59;;;15.40;36.30
46448;BME280;32145;50.390;30.778;2023-04-22T08:28:23;99645.94;;;15.48;36.95
46448;BME280;32145;50.390;30.778;2023-04-22T08:31:18;99645.13;;;15.57;36.42
46448;BME280;32145;50.390;30.778;2023-04-22T08:34:12;99647.31;;;15.66;36.02
46448;BME280;32145;50.390;30.778;2023-04-22T08:37:07;99633.69;;;15.71;36.94
46448;BME280;32145;50.390;30.778;2023-04-22T08:40:01;99641.88;;;15.76;37.67
46448;BME280;32145;50.390;30.778;2023-04-22T08:42:56;99642.69;;;15.77;35.57
46448;BME280;32145;50.390;30.778;2023-04-22T08:45:51;99648.44;;;15.75;35.47
46448;BME280;32145;50.390;30.778;2023-04-22T08:48:46;99648.97;;;15.77;34.94
46448;BME280;32145;50.390;30.778;2023-04-22T08:51:41;99640.22;;;15.85;35.75
46448;BME280;32145;50.390;30.778;2023-04-22T08:54:35;99644.06;;;15.95;35.41
46448;BME280;32145;50.390;30.778;2023-04-22T08:57:30;99645.16;;;15.99;34.92
46448;BME280;32145;50.390;30.778;2023-04-22T09:00:26;99642.69;;;15.97;35.61
46448;BME280;32145;50.390;30.778;2023-04-22T09:03:21;99645.72;;;15.96;35.40
46448;BME280;32145;50.390;30.778;2023-04-22T09:06:16;99654.44;;;16.03;35.67
46448;BME280;32145;50.390;30.778;2023-04-22T09:09:12;99655.81;;;16.06;36.24
46448;BME280;32145;50.390;30.778;2023-04-22T09:12:06;99641.88;;;15.97;34.98
46448;BME280;32145;50.390;30.778;2023-04-22T09:14:50;99650.34;;;16.01;35.60
46448;BME280;32145;50.390;30.778;2023-04-22T09:17:50;99647.34;;;16.07;35.91
46448;BME280;32145;50.390;30.778;2023-04-22T09:20:46;99642.66;;;16.08;35.20
46448;BME280;32145;50.390;30.778;2023-04-22T09:23:46;99629.81;;;16.14;35.06
46448;BME280;32145;50.390;30.778;2023-04-22T09:26:38;99639.09;;;16.18;36.63
46448;BME280;32145;50.390;30.778;2023-04-22T09:29:33;99633.63;;;16.13;34.37
46448;BME280;32145;50.390;30.778;2023-04-22T09:32:27;99635.00;;;16.20;34.54
46448;BME280;32145;50.390;30.778;2023-04-22T09:35:25;99631.69;;;16.34;34.25
46448;BME280;32145;50.390;30.778;2023-04-22T09:38:20;99640.09;;;16.48;33.61
46448;BME280;32145;50.390;30.778;2023-04-22T09:41:14;99640.09;;;16.53;32.93
46448;BME280;32145;50.390;30.778;2023-04-22T09:44:10;99649.94;;;16.54;32.51
46448;BME280;32145;50.390;30.778;2023-04-22T09:47:04;99630.22;;;16.62;32.00
46448;BME280;32145;50.390;30.778;2023-04-22T09:50:02;99630.53;;;16.56;31.07
46448;BME280;32145;50.390;30.778;2023-04-22T09:53:01;99647.22;;;16.49;32.22
46448;BME280;32145;50.390;30.778;2023-04-22T09:55:58;99651.03;;;16.53;33.17
46448;BME280;32145;50.390;30.778;2023-04-22T09:58:52;99643.41;;;16.50;32.46
46448;BME280;32145;50.390;30.778;2023-04-22T10:01:48;99642.88;;;16.43;31.28
46448;BME280;32145;50.390;30.778;2023-04-22T10:04:42;99633.03;;;16.36;31.02
46448;BME280;32145;50.390;30.778;2023-04-22T10:07:37;99646.63;;;16.57;32.09
46448;BME280;32145;50.390;30.778;2023-04-22T10:10:34;99649.84;;;16.80;31.58
46448;BME280;32145;50.390;30.778;2023-04-22T10:13:30;99642.09;;;16.98;30.90
46448;BME280;32145;50.390;30.778;2023-04-22T10:16:27;99655.66;;;17.24;30.41
46448;BME280;32145;50.390;30.778;2023-04-22T10:19:26;99658.16;;;17.20;31.98
46448;BME280;32145;50.390;30.778;2023-04-22T10:22:21;99656.84;;;17.02;31.96
46448;BME280;32145;50.390;30.778;2023-04-22T10:25:20;99645.66;;;16.93;33.04
46448;BME280;32145;50.390;30.778;2023-04-22T10:28:16;99654.81;;;16.68;34.00
46448;BME280;32145;50.390;30.778;2023-04-22T10:31:19;99658.63;;;16.72;33.45
46448;BME280;32145;50.390;30.778;2023-04-22T10:34:14;99661.78;;;17.00;34.32
46448;BME280;32145;50.390;30.778;2023-04-22T10:37:09;99657.28;;;17.25;33.52
46448;BME280;32145;50.390;30.778;2023-04-22T10:40:10;99657.72;;;17.43;32.22
46448;BME280;32145;50.390;30.778;2023-04-22T10:43:04;99658.84;;;17.36;32.15
46448;BME280;32145;50.390;30.778;2023-04-22T10:46:00;99658.84;;;17.36;36.05
46448;BME280;32145;50.390;30.778;2023-04-22T10:48:55;99657.81;;;17.27;33.29
46448;BME280;32145;50.390;30.778;2023-04-22T10:51:51;99660.09;;;17.15;33.37
46448;BME280;32145;50.390;30.778;2023-04-22T10:54:58;99654.13;;;17.02;32.18
46448;BME280;32145;50.390;30.778;2023-04-22T10:57:53;99653.00;;;17.03;33.13
46448;BME280;32145;50.390;30.778;2023-04-22T11:00:47;99660.38;;;17.13;32.57
46448;BME280;32145;50.390;30.778;2023-04-22T11:03:43;99659.81;;;17.11;31.45
46448;BME280;32145;50.390;30.778;2023-04-22T11:06:37;99662.34;;;17.02;32.10
46448;BME280;32145;50.390;30.778;2023-04-22T11:09:38;99663.94;;;17.13;31.49
46448;BME280;32145;50.390;30.778;2023-04-22T11:12:42;99657.44;;;17.39;30.74
46448;BME280;32145;50.390;30.778;2023-04-22T11:15:37;99669.13;;;17.55;29.71
46448;BME280;32145;50.390;30.778;2023-04-22T11:18:32;99659.69;;;17.72;30.26
46448;BME280;32145;50.390;30.778;2023-04-22T11:21:30;99663.75;;;17.74;30.29
46448;BME280;32145;50.390;30.778;2023-04-22T11:24:24;99666.97;;;17.87;31.64
46448;BME280;32145;50.390;30.778;2023-04-22T11:27:18;99666.66;;;17.88;31.00
46448;BME280;32145;50.390;30.778;2023-04-22T11:30:14;99682.78;;;17.65;31.59
46448;BME280;32145;50.390;30.778;2023-04-22T11:33:13;99670.88;;;17.41;31.71
46448;BME280;32145;50.390;30.778;2023-04-22T11:36:09;99672.03;;;17.34;32.59
46448;BME280;32145;50.390;30.778;2023-04-22T11:39:08;99677.00;;;17.27;30.33
46448;BME280;32145;50.390;30.778;2023-04-22T11:42:04;99678.06;;;17.31;30.56
46448;BME280;32145;50.390;30.778;2023-04-22T11:45:00;99678.91;;;17.32;29.68
46448;BME280;32145;50.390;30.778;2023-04-22T11:47:57;99681.34;;;17.33;29.37
46448;BME280;32145;50.390;30.778;2023-04-22T11:51:07;99677.03;;;17.62;30.55
46448;BME280;32145;50.390;30.778;2023-04-22T11:54:03;99664.25;;;17.82;30.01
46448;BME280;32145;50.390;30.778;2023-04-22T11:57:01;99673.75;;;17.95;29.00
46448;BME280;32145;50.390;30.778;2023-04-22T11:59:56;99673.53;;;17.86;28.57
46448;BME280;32145;50.390;30.778;2023-04-22T12:02:58;99672.88;;;17.70;28.42
46448;BME280;32145;50.390;30.778;2023-04-22T12:05:53;99680.06;;;17.60;30.29
46448;BME280;32145;50.390;30.778;2023-04-22T12:08:48;99680.34;;;17.59;30.57
46448;BME280;32145;50.390;30.778;2023-04-22T12:11:43;99677.41;;;17.50;30.08
46448;BME280;32145;50.390;30.778;2023-04-22T12:14:44;99675.94;;;17.23;31.54
46448;BME280;32145;50.390;30.778;2023-04-22T12:17:43;99673.78;;;17.15;31.49
46448;BME280;32145;50.390;30.778;2023-04-22T12:20:40;99677.66;;;17.08;32.45
46448;BME280;32145;50.390;30.778;2023-04-22T14:01:07;99678.75;;;16.00;34.40
46448;BME280;32145;50.390;30.778;2023-04-22T14:04:02;99675.75;;;16.22;35.61
46448;BME280;32145;50.390;30.778;2023-04-22T14:06:56;99671.34;;;16.31;34.70
46448;BME280;32145;50.390;30.778;2023-04-22T14:35:22;99690.19;;;15.34;35.07
46448;BME280;32145;50.390;30.778;2023-04-22T15:06:17;99703.44;;;14.94;35.94
46448;BME280;32145;50.390;30.778;2023-04-22T15:09:12;99714.47;;;15.15;36.31
46448;BME280;32145;50.390;30.778;2023-04-22T15:12:06;99705.22;;;15.31;35.77
46448;BME280;32145;50.390;30.778;2023-04-22T15:15:00;99709.03;;;15.46;35.73
46448;BME280;32145;50.390;30.778;2023-04-22T15:17:54;99716.44;;;15.56;35.63
46448;BME280;32145;50.390;30.778;2023-04-22T15:20:49;99713.47;;;15.63;35.28
46448;BME280;32145;50.390;30.778;2023-04-22T15:23:45;99706.34;;;15.72;35.42
46448;BME280;32145;50.390;30.778;2023-04-22T15:26:39;99709.63;;;15.74;35.47
46448;BME280;32145;50.390;30.778;2023-04-22T15:29:33;99707.72;;;15.75;35.68
46448;BME280;32145;50.390;30.778;2023-04-22T15:32:27;99711.84;;;16.19;34.99
46448;BME280;32145;50.390;30.778;2023-04-22T15:35:22;99711.69;;;16.81;34.42
46448;BME280;32145;50.390;30.778;2023-04-22T15:38:16;99715.81;;;17.39;33.87
46448;BME280;32145;50.390;30.778;2023-04-22T15:41:12;99714.97;;;17.44;33.81
46448;BME280;32145;50.390;30.778;2023-04-22T15:44:06;99718.19;;;17.57;33.59
46448;BME280;32145;50.390;30.778;2023-04-22T15:47:01;99723.19;;;17.84;33.74
46448;BME280;32145;50.390;30.778;2023-04-22T15:49:55;99714.59;;;17.61;34.00
46448;BME280;32145;50.390;30.778;2023-04-22T15:52:49;99711.56;;;17.18;35.09
46448;BME280;32145;50.390;30.778;2023-04-22T15:55:43;99718.81;;;16.77;35.47
46448;BME280;32145;50.390;30.778;2023-04-22T15:58:39;99722.19;;;16.48;35.26
46448;BME280;32145;50.390;30.778;2023-04-22T16:01:34;99717.31;;;16.24;35.60
46448;BME280;32145;50.390;30.778;2023-04-22T16:04:28;99720.34;;;16.12;35.92
46448;BME280;32145;50.390;30.778;2023-04-22T16:07:22;99728.25;;;16.14;35.85
46448;BME280;32145;50.390;30.778;2023-04-22T16:10:17;99720.56;;;16.36;35.27
46448;BME280;32145;50.390;30.778;2023-04-22T16:13:10;99722.69;;;16.71;35.15
46448;BME280;32145;50.390;30.778;2023-04-22T16:16:07;99724.03;;;16.73;34.65
46448;BME280;32145;50.390;30.778;2023-04-22T16:19:03;99726.56;;;16.49;34.92
46448;BME280;32145;50.390;30.778;2023-04-22T16:21:59;99733.19;;;16.22;35.26
46448;BME280;32145;50.390;30.778;2023-04-22T16:24:56;99729.34;;;15.97;35.39
46448;BME280;32145;50.390;30.778;2023-04-22T16:27:52;99735.63;;;15.77;35.89
46448;BME280;32145;50.390;30.778;2023-04-22T16:30:48;99736.97;;;15.58;36.71
46448;BME280;32145;50.390;30.778;2023-04-22T16:33:46;99753.00;;;15.39;37.41
46448;BME280;32145;50.390;30.778;2023-04-22T16:36:42;99746.66;;;15.18;38.43
46448;BME280;32145;50.390;30.778;2023-04-22T16:39:39;99743.84;;;14.97;39.68
46448;BME280;32145;50.390;30.778;2023-04-22T16:42:35;99743.25;;;14.79;40.80
46448;BME280;32145;50.390;30.778;2023-04-22T16:45:32;99746.13;;;14.62;41.22
46448;BME280;32145;50.390;30.778;2023-04-22T16:48:28;99748.50;;;14.48;41.53
46448;BME280;32145;50.390;30.778;2023-04-22T16:51:25;99765.03;;;14.36;42.13
46448;BME280;32145;50.390;30.778;2023-04-22T16:54:22;99753.75;;;14.22;42.07
46448;BME280;32145;50.390;30.778;2023-04-22T16:57:18;99757.47;;;14.11;42.34
46448;BME280;32145;50.390;30.778;2023-04-22T17:00:15;99764.50;;;14.01;43.41
46448;BME280;32145;50.390;30.778;2023-04-22T17:03:11;99766.56;;;13.89;43.90
46448;BME280;32145;50.390;30.778;2023-04-22T17:06:07;99769.97;;;13.74;44.35
46448;BME280;32145;50.390;30.778;2023-04-22T17:09:03;99770.13;;;13.62;44.73
46448;BME280;32145;50.390;30.778;2023-04-22T17:11:57;99764.28;;;13.53;44.66
46448;BME280;32145;50.390;30.778;2023-04-22T17:14:52;99774.56;;;13.46;44.96
46448;BME280;32145;50.390;30.778;2023-04-22T17:17:46;99778.03;;;13.41;45.36
46448;BME280;32145;50.390;30.778;2023-04-22T17:20:42;99785.03;;;13.32;45.76
46448;BME280;32145;50.390;30.778;2023-04-22T17:23:39;99782.72;;;13.23;46.05
46448;BME280;32145;50.390;30.778;2023-04-22T17:26:36;99787.56;;;13.16;47.21
46448;BME280;32145;50.390;30.778;2023-04-22T17:29:33;99792.84;;;13.06;48.04
46448;BME280;32145;50.390;30.778;2023-04-22T17:32:29;99795.19;;;12.97;48.31
46448;BME280;32145;50.390;30.778;2023-04-22T17:35:25;99794.28;;;12.91;48.29
46448;BME280;32145;50.390;30.778;2023-04-22T17:38:22;99802.97;;;12.88;48.30
46448;BME280;32145;50.390;30.778;2023-04-22T17:41:18;99804.28;;;12.85;48.71
46448;BME280;32145;50.390;30.778;2023-04-22T17:44:16;99814.84;;;12.82;48.64
46448;BME280;32145;50.390;30.778;2023-04-22T17:47:12;99805.53;;;12.78;48.57
46448;BME280;32145;50.390;30.778;2023-04-22T17:50:09;99817.16;;;12.73;48.78
46448;BME280;32145;50.390;30.778;2023-04-22T17:53:04;99825.25;;;12.68;49.33